sensor_id;sensor_type;location;lat;lon;timestamp;temperature;humidity
1686;DHT22;840;47.980;7.830;2022-07-23T00:00:10;27.10;98.20
1686;DHT22;840;47.980;7.830;2022-07-23T00:02:38;27.00;98.40
1686;DHT22;840;47.980;7.830;2022-07-23T00:05:06;27.00;97.90
1686;DHT22;840;47.980;7.830;2022-07-23T00:07:32;27.00;97.80
1686;DHT22;840;47.980;7.830;2022-07-23T00:09:59;26.60;99.10
1686;DHT22;840;47.980;7.830;2022-07-23T00:12:26;26.40;99.90
1686;DHT22;840;47.980;7.830;2022-07-23T00:14:53;26.30;99.90
1686;DHT22;840;47.980;7.830;2022-07-23T00:17:20;26.20;99.90
1686;DHT22;840;47.980;7.830;2022-07-23T00:19:48;26.10;99.90
1686;DHT22;840;47.980;7.830;2022-07-23T00:22:15;25.90;99.90
1686;DHT22;840;47.980;7.830;2022-07-23T00:24:41;25.80;99.90
1686;DHT22;840;47.980;7.830;2022-07-23T00:27:08;25.70;99.90
1686;DHT22;840;47.980;7.830;2022-07-23T00:29:35;25.70;99.90
1686;DHT22;840;47.980;7.830;2022-07-23T00:32:02;25.50;99.90
1686;DHT22;840;47.980;7.830;2022-07-23T00:34:29;25.40;99.90
1686;DHT22;840;47.980;7.830;2022-07-23T00:36:57;25.30;99.90
1686;DHT22;840;47.980;7.830;2022-07-23T00:39:24;25.30;99.90
1686;DHT22;840;47.980;7.830;2022-07-23T00:41:51;25.30;99.90
1686;DHT22;840;47.980;7.830;2022-07-23T00:44:19;25.40;99.90
1686;DHT22;840;47.980;7.830;2022-07-23T00:46:49;25.40;99.70
1686;DHT22;840;47.980;7.830;2022-07-23T00:49:19;25.50;99.30
1686;DHT22;840;47.980;7.830;2022-07-23T00:51:46;25.60;99.10
1686;DHT22;840;47.980;7.830;2022-07-23T00:54:15;25.70;98.70
1686;DHT22;840;47.980;7.830;2022-07-23T00:56:43;25.80;98.70
1686;DHT22;840;47.980;7.830;2022-07-23T00:59:10;25.80;98.80
1686;DHT22;840;47.980;7.830;2022-07-23T01:01:37;25.90;98.90
1686;DHT22;840;47.980;7.830;2022-07-23T01:04:04;26.00;99.10
1686;DHT22;840;47.980;7.830;2022-07-23T01:06:35;26.10;99.10
1686;DHT22;840;47.980;7.830;2022-07-23T01:09:03;26.10;98.80
1686;DHT22;840;47.980;7.830;2022-07-23T01:11:32;26.20;99.50
1686;DHT22;840;47.980;7.830;2022-07-23T01:13:59;26.20;99.90
1686;DHT22;840;47.980;7.830;2022-07-23T01:16:33;26.20;99.90
1686;DHT22;840;47.980;7.830;2022-07-23T01:19:00;26.20;99.90
1686;DHT22;840;47.980;7.830;2022-07-23T01:21:27;26.20;99.90
1686;DHT22;840;47.980;7.830;2022-07-23T01:23:56;26.10;99.90
1686;DHT22;840;47.980;7.830;2022-07-23T01:26:22;26.20;99.90
1686;DHT22;840;47.980;7.830;2022-07-23T01:28:49;26.10;99.90
1686;DHT22;840;47.980;7.830;2022-07-23T01:31:16;26.10;99.90
1686;DHT22;840;47.980;7.830;2022-07-23T01:33:43;26.10;99.90
1686;DHT22;840;47.980;7.830;2022-07-23T01:36:10;26.00;99.90
1686;DHT22;840;47.980;7.830;2022-07-23T01:38:36;26.00;99.90
1686;DHT22;840;47.980;7.830;2022-07-23T01:41:05;25.70;99.90
1686;DHT22;840;47.980;7.830;2022-07-23T01:43:31;25.20;99.90
1686;DHT22;840;47.980;7.830;2022-07-23T01:45:58;24.90;99.90
1686;DHT22;840;47.980;7.830;2022-07-23T01:48:25;24.60;99.90
1686;DHT22;840;47.980;7.830;2022-07-23T01:50:52;24.40;99.90
1686;DHT22;840;47.980;7.830;2022-07-23T01:53:19;24.20;99.90
1686;DHT22;840;47.980;7.830;2022-07-23T01:55:45;24.10;99.90
1686;DHT22;840;47.980;7.830;2022-07-23T01:58:14;24.00;99.90
1686;DHT22;840;47.980;7.830;2022-07-23T02:00:40;23.90;99.90
1686;DHT22;840;47.980;7.830;2022-07-23T02:03:07;23.80;99.90
1686;DHT22;840;47.980;7.830;2022-07-23T02:05:34;23.80;99.90
1686;DHT22;840;47.980;7.830;2022-07-23T02:08:02;23.60;99.90
1686;DHT22;840;47.980;7.830;2022-07-23T02:10:28;23.50;99.90
1686;DHT22;840;47.980;7.830;2022-07-23T02:12:55;23.50;99.90
1686;DHT22;840;47.980;7.830;2022-07-23T02:15:23;23.40;99.90
1686;DHT22;840;47.980;7.830;2022-07-23T02:17:50;23.30;99.90
1686;DHT22;840;47.980;7.830;2022-07-23T02:20:17;23.10;99.90
1686;DHT22;840;47.980;7.830;2022-07-23T02:22:44;22.90;99.90
1686;DHT22;840;47.980;7.830;2022-07-23T02:25:10;22.80;99.90
1686;DHT22;840;47.980;7.830;2022-07-23T02:27:37;22.80;99.90
1686;DHT22;840;47.980;7.830;2022-07-23T02:30:05;22.80;99.90
1686;DHT22;840;47.980;7.830;2022-07-23T02:32:34;22.80;99.90
1686;DHT22;840;47.980;7.830;2022-07-23T02:35:01;22.80;99.90
1686;DHT22;840;47.980;7.830;2022-07-23T02:37:28;23.00;99.90
1686;DHT22;840;47.980;7.830;2022-07-23T02:39:55;23.00;99.90
1686;DHT22;840;47.980;7.830;2022-07-23T02:42:22;23.00;99.90
1686;DHT22;840;47.980;7.830;2022-07-23T02:44:49;23.10;99.90
1686;DHT22;840;47.980;7.830;2022-07-23T02:47:16;23.10;99.90
1686;DHT22;840;47.980;7.830;2022-07-23T02:49:44;23.20;99.90
1686;DHT22;840;47.980;7.830;2022-07-23T02:52:11;23.20;99.90
1686;DHT22;840;47.980;7.830;2022-07-23T02:54:38;23.20;99.90
1686;DHT22;840;47.980;7.830;2022-07-23T02:57:05;23.20;99.90
1686;DHT22;840;47.980;7.830;2022-07-23T02:59:32;23.20;99.90
1686;DHT22;840;47.980;7.830;2022-07-23T03:01:59;23.20;99.90
1686;DHT22;840;47.980;7.830;2022-07-23T03:04:25;23.20;99.90
1686;DHT22;840;47.980;7.830;2022-07-23T03:06:53;23.10;99.90
1686;DHT22;840;47.980;7.830;2022-07-23T03:09:20;23.10;99.90
1686;DHT22;840;47.980;7.830;2022-07-23T03:11:47;23.10;99.90
1686;DHT22;840;47.980;7.830;2022-07-23T03:14:14;23.10;99.90
1686;DHT22;840;47.980;7.830;2022-07-23T03:16:41;23.10;99.90
1686;DHT22;840;47.980;7.830;2022-07-23T03:19:08;23.00;99.90
1686;DHT22;840;47.980;7.830;2022-07-23T03:21:35;23.00;99.90
1686;DHT22;840;47.980;7.830;2022-07-23T03:24:07;23.00;99.90
1686;DHT22;840;47.980;7.830;2022-07-23T03:26:34;23.00;99.90
1686;DHT22;840;47.980;7.830;2022-07-23T03:29:00;23.10;99.90
1686;DHT22;840;47.980;7.830;2022-07-23T03:31:29;23.00;99.90
1686;DHT22;840;47.980;7.830;2022-07-23T03:33:56;23.10;99.90
1686;DHT22;840;47.980;7.830;2022-07-23T03:36:23;23.00;99.90
1686;DHT22;840;47.980;7.830;2022-07-23T03:38:49;23.00;99.90
1686;DHT22;840;47.980;7.830;2022-07-23T03:41:17;23.00;99.90
1686;DHT22;840;47.980;7.830;2022-07-23T03:43:44;23.10;99.90
1686;DHT22;840;47.980;7.830;2022-07-23T03:46:11;23.10;99.90
1686;DHT22;840;47.980;7.830;2022-07-23T03:48:38;23.10;99.90
1686;DHT22;840;47.980;7.830;2022-07-23T03:51:05;23.10;99.90
1686;DHT22;840;47.980;7.830;2022-07-23T03:53:33;22.80;99.90
1686;DHT22;840;47.980;7.830;2022-07-23T03:56:00;22.30;99.90
1686;DHT22;840;47.980;7.830;2022-07-23T03:58:28;22.20;99.90
1686;DHT22;840;47.980;7.830;2022-07-23T04:00:54;22.10;99.90
1686;DHT22;840;47.980;7.830;2022-07-23T04:03:21;22.10;99.90
1686;DHT22;840;47.980;7.830;2022-07-23T04:05:48;22.20;99.90
1686;DHT22;840;47.980;7.830;2022-07-23T04:08:15;22.30;99.90
1686;DHT22;840;47.980;7.830;2022-07-23T04:10:42;22.30;99.90
1686;DHT22;840;47.980;7.830;2022-07-23T04:13:09;22.30;99.90
1686;DHT22;840;47.980;7.830;2022-07-23T04:15:37;22.40;99.90
1686;DHT22;840;47.980;7.830;2022-07-23T04:18:04;22.40;99.90
1686;DHT22;840;47.980;7.830;2022-07-23T04:20:31;22.50;99.90
1686;DHT22;840;47.980;7.830;2022-07-23T04:22:58;22.50;99.90
1686;DHT22;840;47.980;7.830;2022-07-23T04:25:25;22.60;99.90
1686;DHT22;840;47.980;7.830;2022-07-23T04:27:52;22.70;99.90
1686;DHT22;840;47.980;7.830;2022-07-23T04:30:19;22.70;99.90
1686;DHT22;840;47.980;7.830;2022-07-23T04:32:47;22.70;99.90
1686;DHT22;840;47.980;7.830;2022-07-23T04:35:13;22.80;99.90
1686;DHT22;840;47.980;7.830;2022-07-23T04:37:40;22.80;99.90
1686;DHT22;840;47.980;7.830;2022-07-23T04:40:07;22.80;99.90
1686;DHT22;840;47.980;7.830;2022-07-23T04:42:35;22.80;99.90
1686;DHT22;840;47.980;7.830;2022-07-23T04:45:02;22.90;99.90
1686;DHT22;840;47.980;7.830;2022-07-23T04:47:29;22.90;99.90
1686;DHT22;840;47.980;7.830;2022-07-23T04:49:58;23.00;99.90
1686;DHT22;840;47.980;7.830;2022-07-23T04:52:25;23.00;99.90
1686;DHT22;840;47.980;7.830;2022-07-23T04:54:52;23.00;99.90
1686;DHT22;840;47.980;7.830;2022-07-23T04:57:18;23.10;99.90
1686;DHT22;840;47.980;7.830;2022-07-23T04:59:45;23.10;99.90
1686;DHT22;840;47.980;7.830;2022-07-23T05:02:12;23.10;99.90
1686;DHT22;840;47.980;7.830;2022-07-23T05:04:39;23.10;99.90
1686;DHT22;840;47.980;7.830;2022-07-23T05:07:07;23.10;99.90
1686;DHT22;840;47.980;7.830;2022-07-23T05:09:34;23.10;99.90
1686;DHT22;840;47.980;7.830;2022-07-23T05:12:01;23.20;99.90
1686;DHT22;840;47.980;7.830;2022-07-23T05:14:27;23.20;99.90
1686;DHT22;840;47.980;7.830;2022-07-23T05:16:54;23.30;99.90
1686;DHT22;840;47.980;7.830;2022-07-23T05:19:21;23.30;99.90
1686;DHT22;840;47.980;7.830;2022-07-23T05:21:48;23.40;99.90
1686;DHT22;840;47.980;7.830;2022-07-23T05:24:16;23.40;99.90
1686;DHT22;840;47.980;7.830;2022-07-23T05:26:43;23.50;99.90
1686;DHT22;840;47.980;7.830;2022-07-23T05:29:09;23.50;99.90
1686;DHT22;840;47.980;7.830;2022-07-23T05:31:36;23.50;99.90
1686;DHT22;840;47.980;7.830;2022-07-23T05:34:03;23.50;99.90
1686;DHT22;840;47.980;7.830;2022-07-23T05:36:31;23.50;99.90
1686;DHT22;840;47.980;7.830;2022-07-23T05:38:58;23.60;99.90
1686;DHT22;840;47.980;7.830;2022-07-23T05:41:26;23.60;99.90
1686;DHT22;840;47.980;7.830;2022-07-23T05:43:53;23.60;99.90
1686;DHT22;840;47.980;7.830;2022-07-23T05:46:19;23.60;99.90
1686;DHT22;840;47.980;7.830;2022-07-23T05:48:46;23.70;99.90
1686;DHT22;840;47.980;7.830;2022-07-23T05:51:19;23.70;99.90
1686;DHT22;840;47.980;7.830;2022-07-23T05:53:46;23.80;99.90
1686;DHT22;840;47.980;7.830;2022-07-23T05:56:13;23.80;99.90
1686;DHT22;840;47.980;7.830;2022-07-23T05:58:41;23.80;99.90
1686;DHT22;840;47.980;7.830;2022-07-23T06:01:08;23.80;99.90
1686;DHT22;840;47.980;7.830;2022-07-23T06:03:35;23.80;99.90
1686;DHT22;840;47.980;7.830;2022-07-23T06:06:02;23.80;99.90
1686;DHT22;840;47.980;7.830;2022-07-23T06:08:29;23.90;99.90
1686;DHT22;840;47.980;7.830;2022-07-23T06:10:55;23.90;99.90
1686;DHT22;840;47.980;7.830;2022-07-23T06:13:22;24.00;99.90
1686;DHT22;840;47.980;7.830;2022-07-23T06:15:51;23.90;99.90
1686;DHT22;840;47.980;7.830;2022-07-23T06:18:17;23.90;99.90
1686;DHT22;840;47.980;7.830;2022-07-23T06:20:44;24.00;99.90
1686;DHT22;840;47.980;7.830;2022-07-23T06:23:11;24.00;99.90
1686;DHT22;840;47.980;7.830;2022-07-23T06:25:38;24.00;99.90
1686;DHT22;840;47.980;7.830;2022-07-23T06:28:06;24.10;99.90
1686;DHT22;840;47.980;7.830;2022-07-23T06:30:33;24.10;99.90
1686;DHT22;840;47.980;7.830;2022-07-23T06:33:01;24.10;99.90
1686;DHT22;840;47.980;7.830;2022-07-23T06:35:27;24.20;99.90
1686;DHT22;840;47.980;7.830;2022-07-23T06:37:54;24.20;99.90
1686;DHT22;840;47.980;7.830;2022-07-23T06:40:21;24.20;99.90
1686;DHT22;840;47.980;7.830;2022-07-23T06:42:48;24.20;99.90
1686;DHT22;840;47.980;7.830;2022-07-23T06:45:15;24.30;99.90
1686;DHT22;840;47.980;7.830;2022-07-23T06:47:42;24.30;99.90
1686;DHT22;840;47.980;7.830;2022-07-23T06:50:10;24.20;99.90
1686;DHT22;840;47.980;7.830;2022-07-23T06:52:37;24.20;99.90
1686;DHT22;840;47.980;7.830;2022-07-23T06:55:05;24.10;99.90
1686;DHT22;840;47.980;7.830;2022-07-23T06:57:32;24.00;99.90
1686;DHT22;840;47.980;7.830;2022-07-23T06:59:58;23.80;99.90
1686;DHT22;840;47.980;7.830;2022-07-23T07:02:25;23.70;99.90
1686;DHT22;840;47.980;7.830;2022-07-23T07:04:52;23.70;99.90
1686;DHT22;840;47.980;7.830;2022-07-23T07:07:21;23.70;99.90
1686;DHT22;840;47.980;7.830;2022-07-23T07:09:47;23.60;99.90
1686;DHT22;840;47.980;7.830;2022-07-23T07:12:14;23.70;99.90
1686;DHT22;840;47.980;7.830;2022-07-23T07:14:41;23.70;99.90
1686;DHT22;840;47.980;7.830;2022-07-23T07:17:08;23.60;99.90
1686;DHT22;840;47.980;7.830;2022-07-23T07:19:36;23.50;99.90
1686;DHT22;840;47.980;7.830;2022-07-23T07:22:03;23.50;99.90
1686;DHT22;840;47.980;7.830;2022-07-23T07:24:32;23.50;99.90
1686;DHT22;840;47.980;7.830;2022-07-23T07:26:58;23.60;99.90
1686;DHT22;840;47.980;7.830;2022-07-23T07:29:25;23.80;99.90
1686;DHT22;840;47.980;7.830;2022-07-23T07:31:52;24.00;99.90
1686;DHT22;840;47.980;7.830;2022-07-23T07:34:19;24.10;99.90
1686;DHT22;840;47.980;7.830;2022-07-23T07:36:46;24.20;99.90
1686;DHT22;840;47.980;7.830;2022-07-23T07:39:13;24.40;99.90
1686;DHT22;840;47.980;7.830;2022-07-23T07:41:41;24.50;99.90
1686;DHT22;840;47.980;7.830;2022-07-23T07:44:08;24.60;99.90
1686;DHT22;840;47.980;7.830;2022-07-23T07:46:35;24.60;99.90
1686;DHT22;840;47.980;7.830;2022-07-23T07:49:02;24.50;99.90
1686;DHT22;840;47.980;7.830;2022-07-23T07:51:29;24.50;99.90
1686;DHT22;840;47.980;7.830;2022-07-23T07:53:56;24.70;99.90
1686;DHT22;840;47.980;7.830;2022-07-23T07:56:23;24.80;99.90
1686;DHT22;840;47.980;7.830;2022-07-23T07:58:51;24.80;99.90
1686;DHT22;840;47.980;7.830;2022-07-23T08:01:18;24.80;99.90
1686;DHT22;840;47.980;7.830;2022-07-23T08:03:45;24.90;99.90
1686;DHT22;840;47.980;7.830;2022-07-23T08:06:12;24.90;99.90
1686;DHT22;840;47.980;7.830;2022-07-23T08:08:39;25.00;99.90
1686;DHT22;840;47.980;7.830;2022-07-23T08:11:06;24.90;99.90
1686;DHT22;840;47.980;7.830;2022-07-23T08:13:33;24.90;99.90
1686;DHT22;840;47.980;7.830;2022-07-23T08:16:03;25.00;99.90
1686;DHT22;840;47.980;7.830;2022-07-23T08:18:30;25.10;99.90
1686;DHT22;840;47.980;7.830;2022-07-23T08:20:57;25.20;99.90
1686;DHT22;840;47.980;7.830;2022-07-23T08:23:24;25.30;99.90
1686;DHT22;840;47.980;7.830;2022-07-23T08:25:50;25.40;99.90
1686;DHT22;840;47.980;7.830;2022-07-23T08:28:17;25.60;99.90
1686;DHT22;840;47.980;7.830;2022-07-23T08:30:44;25.70;99.90
1686;DHT22;840;47.980;7.830;2022-07-23T08:33:14;25.80;99.90
1686;DHT22;840;47.980;7.830;2022-07-23T08:35:42;26.00;99.90
1686;DHT22;840;47.980;7.830;2022-07-23T08:38:11;26.00;99.90
1686;DHT22;840;47.980;7.830;2022-07-23T08:40:39;26.10;99.90
1686;DHT22;840;47.980;7.830;2022-07-23T08:43:07;26.20;99.90
1686;DHT22;840;47.980;7.830;2022-07-23T08:45:37;26.30;99.90
1686;DHT22;840;47.980;7.830;2022-07-23T08:48:07;26.40;99.90
1686;DHT22;840;47.980;7.830;2022-07-23T08:50:35;26.50;99.90
1686;DHT22;840;47.980;7.830;2022-07-23T08:53:05;26.60;99.90
1686;DHT22;840;47.980;7.830;2022-07-23T08:55:33;26.70;99.90
1686;DHT22;840;47.980;7.830;2022-07-23T08:57:59;26.60;99.90
1686;DHT22;840;47.980;7.830;2022-07-23T09:00:27;26.70;99.90
1686;DHT22;840;47.980;7.830;2022-07-23T09:02:54;26.70;99.90
1686;DHT22;840;47.980;7.830;2022-07-23T09:05:20;26.90;99.90
1686;DHT22;840;47.980;7.830;2022-07-23T09:08:19;27.00;99.90
1686;DHT22;840;47.980;7.830;2022-07-23T09:10:49;27.10;99.90
1686;DHT22;840;47.980;7.830;2022-07-23T09:13:32;27.10;99.90
1686;DHT22;840;47.980;7.830;2022-07-23T09:16:01;26.90;99.90
1686;DHT22;840;47.980;7.830;2022-07-23T09:18:30;26.80;99.90
1686;DHT22;840;47.980;7.830;2022-07-23T09:21:14;26.80;99.90
1686;DHT22;840;47.980;7.830;2022-07-23T09:23:43;26.60;99.90
1686;DHT22;840;47.980;7.830;2022-07-23T09:26:31;26.60;99.90
1686;DHT22;840;47.980;7.830;2022-07-23T09:29:04;26.70;99.90
1686;DHT22;840;47.980;7.830;2022-07-23T09:31:33;26.90;99.90
1686;DHT22;840;47.980;7.830;2022-07-23T09:34:08;27.00;99.90
1686;DHT22;840;47.980;7.830;2022-07-23T09:36:35;27.10;99.90
1686;DHT22;840;47.980;7.830;2022-07-23T09:39:03;27.20;99.90
1686;DHT22;840;47.980;7.830;2022-07-23T09:41:38;27.10;99.90
1686;DHT22;840;47.980;7.830;2022-07-23T09:44:10;27.10;99.90
1686;DHT22;840;47.980;7.830;2022-07-23T09:46:38;27.20;99.90
1686;DHT22;840;47.980;7.830;2022-07-23T09:49:17;27.40;99.90
1686;DHT22;840;47.980;7.830;2022-07-23T09:51:52;27.50;99.90
1686;DHT22;840;47.980;7.830;2022-07-23T09:54:34;27.60;99.90
1686;DHT22;840;47.980;7.830;2022-07-23T09:57:05;27.70;99.90
1686;DHT22;840;47.980;7.830;2022-07-23T09:59:35;27.80;99.90
1686;DHT22;840;47.980;7.830;2022-07-23T10:02:02;27.80;99.90
1686;DHT22;840;47.980;7.830;2022-07-23T10:04:31;27.90;99.90
1686;DHT22;840;47.980;7.830;2022-07-23T10:07:00;27.90;99.90
1686;DHT22;840;47.980;7.830;2022-07-23T10:09:31;28.00;99.90
1686;DHT22;840;47.980;7.830;2022-07-23T10:11:59;28.10;99.90
1686;DHT22;840;47.980;7.830;2022-07-23T10:14:31;28.10;99.90
1686;DHT22;840;47.980;7.830;2022-07-23T10:17:00;28.10;99.90
1686;DHT22;840;47.980;7.830;2022-07-23T10:19:28;28.00;99.90
1686;DHT22;840;47.980;7.830;2022-07-23T10:21:58;28.10;99.90
1686;DHT22;840;47.980;7.830;2022-07-23T10:24:41;28.10;99.90
1686;DHT22;840;47.980;7.830;2022-07-23T10:27:26;28.10;99.90
1686;DHT22;840;47.980;7.830;2022-07-23T10:30:02;28.10;99.90
1686;DHT22;840;47.980;7.830;2022-07-23T10:32:40;28.00;99.90
1686;DHT22;840;47.980;7.830;2022-07-23T10:35:16;28.10;99.90
1686;DHT22;840;47.980;7.830;2022-07-23T10:37:48;28.30;99.90
1686;DHT22;840;47.980;7.830;2022-07-23T10:40:18;28.40;99.90
1686;DHT22;840;47.980;7.830;2022-07-23T10:42:48;28.60;99.90
1686;DHT22;840;47.980;7.830;2022-07-23T10:45:28;28.60;99.90
1686;DHT22;840;47.980;7.830;2022-07-23T10:47:56;28.60;99.90
1686;DHT22;840;47.980;7.830;2022-07-23T10:50:38;28.60;99.90
1686;DHT22;840;47.980;7.830;2022-07-23T10:53:16;28.60;99.90
1686;DHT22;840;47.980;7.830;2022-07-23T10:55:47;28.60;99.90
1686;DHT22;840;47.980;7.830;2022-07-23T10:58:20;28.50;99.90
1686;DHT22;840;47.980;7.830;2022-07-23T11:00:47;28.40;99.90
1686;DHT22;840;47.980;7.830;2022-07-23T11:03:32;28.30;99.90
1686;DHT22;840;47.980;7.830;2022-07-23T11:06:01;28.30;99.90
1686;DHT22;840;47.980;7.830;2022-07-23T11:08:28;28.30;99.90
1686;DHT22;840;47.980;7.830;2022-07-23T11:11:08;28.30;99.90
1686;DHT22;840;47.980;7.830;2022-07-23T11:13:41;28.20;99.90
1686;DHT22;840;47.980;7.830;2022-07-23T11:16:13;28.00;99.90
1686;DHT22;840;47.980;7.830;2022-07-23T11:18:55;28.00;99.90
1686;DHT22;840;47.980;7.830;2022-07-23T11:21:44;28.10;99.90
1686;DHT22;840;47.980;7.830;2022-07-23T11:24:12;28.20;99.90
1686;DHT22;840;47.980;7.830;2022-07-23T11:26:50;28.20;99.90
1686;DHT22;840;47.980;7.830;2022-07-23T11:32:34;28.50;99.90
1686;DHT22;840;47.980;7.830;2022-07-23T11:35:18;28.70;99.90
1686;DHT22;840;47.980;7.830;2022-07-23T11:37:46;28.70;99.90
1686;DHT22;840;47.980;7.830;2022-07-23T11:40:16;28.90;99.90
1686;DHT22;840;47.980;7.830;2022-07-23T11:42:56;29.00;99.90
1686;DHT22;840;47.980;7.830;2022-07-23T11:45:25;29.20;99.90
1686;DHT22;840;47.980;7.830;2022-07-23T11:47:52;29.20;99.90
1686;DHT22;840;47.980;7.830;2022-07-23T11:50:25;29.40;99.90
1686;DHT22;840;47.980;7.830;2022-07-23T11:52:52;29.40;99.90
1686;DHT22;840;47.980;7.830;2022-07-23T11:55:19;29.40;99.90
1686;DHT22;840;47.980;7.830;2022-07-23T11:57:47;29.40;99.90
1686;DHT22;840;47.980;7.830;2022-07-23T12:00:17;29.30;99.90
1686;DHT22;840;47.980;7.830;2022-07-23T12:02:46;29.40;99.90
1686;DHT22;840;47.980;7.830;2022-07-23T12:05:13;29.50;99.90
1686;DHT22;840;47.980;7.830;2022-07-23T12:07:41;29.60;99.90
1686;DHT22;840;47.980;7.830;2022-07-23T12:10:12;29.60;99.90
1686;DHT22;840;47.980;7.830;2022-07-23T12:12:41;29.40;99.90
1686;DHT22;840;47.980;7.830;2022-07-23T12:15:10;29.40;99.90
1686;DHT22;840;47.980;7.830;2022-07-23T12:17:42;29.40;99.90
1686;DHT22;840;47.980;7.830;2022-07-23T12:20:11;29.50;99.90
1686;DHT22;840;47.980;7.830;2022-07-23T12:22:40;29.60;99.90
1686;DHT22;840;47.980;7.830;2022-07-23T12:25:09;29.80;99.90
1686;DHT22;840;47.980;7.830;2022-07-23T12:27:36;29.70;99.90
1686;DHT22;840;47.980;7.830;2022-07-23T12:30:18;29.60;99.90
1686;DHT22;840;47.980;7.830;2022-07-23T12:32:49;29.70;99.90
1686;DHT22;840;47.980;7.830;2022-07-23T12:35:16;29.80;99.90
1686;DHT22;840;47.980;7.830;2022-07-23T12:37:45;30.00;99.90
1686;DHT22;840;47.980;7.830;2022-07-23T12:40:23;30.10;99.90
1686;DHT22;840;47.980;7.830;2022-07-23T12:42:53;30.10;99.90
1686;DHT22;840;47.980;7.830;2022-07-23T12:45:20;30.10;99.90
1686;DHT22;840;47.980;7.830;2022-07-23T12:47:59;30.20;99.90
1686;DHT22;840;47.980;7.830;2022-07-23T12:50:34;30.20;99.90
1686;DHT22;840;47.980;7.830;2022-07-23T12:53:06;30.50;99.90
1686;DHT22;840;47.980;7.830;2022-07-23T12:55:33;30.70;99.90
1686;DHT22;840;47.980;7.830;2022-07-23T12:58:09;31.00;99.90
1686;DHT22;840;47.980;7.830;2022-07-23T13:00:57;31.30;99.90
1686;DHT22;840;47.980;7.830;2022-07-23T13:03:27;31.40;99.10
1686;DHT22;840;47.980;7.830;2022-07-23T13:05:55;31.50;99.20
1686;DHT22;840;47.980;7.830;2022-07-23T13:08:26;31.50;98.30
1686;DHT22;840;47.980;7.830;2022-07-23T13:10:53;31.50;98.10
1686;DHT22;840;47.980;7.830;2022-07-23T13:13:21;31.70;98.40
1686;DHT22;840;47.980;7.830;2022-07-23T13:15:49;32.00;98.60
1686;DHT22;840;47.980;7.830;2022-07-23T13:18:16;32.30;96.70
1686;DHT22;840;47.980;7.830;2022-07-23T13:20:46;32.50;95.90
1686;DHT22;840;47.980;7.830;2022-07-23T13:23:13;32.30;95.40
1686;DHT22;840;47.980;7.830;2022-07-23T13:25:40;32.00;95.90
1686;DHT22;840;47.980;7.830;2022-07-23T13:28:07;31.70;96.20
1686;DHT22;840;47.980;7.830;2022-07-23T13:30:35;31.70;95.60
1686;DHT22;840;47.980;7.830;2022-07-23T13:33:02;31.80;96.40
1686;DHT22;840;47.980;7.830;2022-07-23T13:35:29;32.00;96.20
1686;DHT22;840;47.980;7.830;2022-07-23T13:37:57;32.00;95.20
1686;DHT22;840;47.980;7.830;2022-07-23T13:40:24;32.10;95.30
1686;DHT22;840;47.980;7.830;2022-07-23T13:42:51;32.30;95.60
1686;DHT22;840;47.980;7.830;2022-07-23T13:45:18;32.60;94.30
1686;DHT22;840;47.980;7.830;2022-07-23T13:47:45;32.70;93.90
1686;DHT22;840;47.980;7.830;2022-07-23T13:50:12;32.70;93.00
1686;DHT22;840;47.980;7.830;2022-07-23T13:52:41;32.70;92.80
1686;DHT22;840;47.980;7.830;2022-07-23T13:55:09;33.00;93.10
1686;DHT22;840;47.980;7.830;2022-07-23T13:57:36;33.40;92.30
1686;DHT22;840;47.980;7.830;2022-07-23T14:00:04;33.70;90.50
1686;DHT22;840;47.980;7.830;2022-07-23T14:02:32;34.00;86.70
1686;DHT22;840;47.980;7.830;2022-07-23T14:04:59;34.20;85.40
1686;DHT22;840;47.980;7.830;2022-07-23T14:07:26;34.50;85.90
1686;DHT22;840;47.980;7.830;2022-07-23T14:09:53;34.70;83.50
1686;DHT22;840;47.980;7.830;2022-07-23T14:12:21;34.60;81.20
1686;DHT22;840;47.980;7.830;2022-07-23T14:14:47;34.60;78.80
1686;DHT22;840;47.980;7.830;2022-07-23T14:17:14;34.40;79.00
1686;DHT22;840;47.980;7.830;2022-07-23T14:19:41;34.30;79.60
1686;DHT22;840;47.980;7.830;2022-07-23T14:22:08;34.00;79.30
1686;DHT22;840;47.980;7.830;2022-07-23T14:24:35;33.40;77.50
1686;DHT22;840;47.980;7.830;2022-07-23T14:27:03;33.20;77.90
1686;DHT22;840;47.980;7.830;2022-07-23T14:29:32;33.20;76.60
1686;DHT22;840;47.980;7.830;2022-07-23T14:31:59;33.00;85.20
1686;DHT22;840;47.980;7.830;2022-07-23T14:34:26;32.70;87.80
1686;DHT22;840;47.980;7.830;2022-07-23T14:36:53;32.50;88.60
1686;DHT22;840;47.980;7.830;2022-07-23T14:39:19;32.20;89.60
1686;DHT22;840;47.980;7.830;2022-07-23T14:41:46;31.80;90.30
1686;DHT22;840;47.980;7.830;2022-07-23T14:44:13;31.60;91.00
1686;DHT22;840;47.980;7.830;2022-07-23T14:46:41;31.40;91.30
1686;DHT22;840;47.980;7.830;2022-07-23T14:49:08;31.40;92.10
1686;DHT22;840;47.980;7.830;2022-07-23T14:51:35;31.40;92.00
1686;DHT22;840;47.980;7.830;2022-07-23T14:54:02;31.50;91.60
1686;DHT22;840;47.980;7.830;2022-07-23T14:56:29;31.50;91.80
1686;DHT22;840;47.980;7.830;2022-07-23T14:58:56;31.60;91.30
1686;DHT22;840;47.980;7.830;2022-07-23T15:01:23;31.50;91.60
1686;DHT22;840;47.980;7.830;2022-07-23T15:03:51;31.30;91.20
1686;DHT22;840;47.980;7.830;2022-07-23T15:06:18;31.40;91.50
1686;DHT22;840;47.980;7.830;2022-07-23T15:08:45;31.20;91.50
1686;DHT22;840;47.980;7.830;2022-07-23T15:11:11;31.20;91.90
1686;DHT22;840;47.980;7.830;2022-07-23T15:13:39;31.20;91.50
1686;DHT22;840;47.980;7.830;2022-07-23T15:16:06;31.30;92.00
1686;DHT22;840;47.980;7.830;2022-07-23T15:18:33;31.40;91.20
1686;DHT22;840;47.980;7.830;2022-07-23T15:21:02;31.40;92.00
1686;DHT22;840;47.980;7.830;2022-07-23T15:23:29;31.20;92.60
1686;DHT22;840;47.980;7.830;2022-07-23T15:25:57;30.80;93.00
1686;DHT22;840;47.980;7.830;2022-07-23T15:28:24;30.80;92.40
1686;DHT22;840;47.980;7.830;2022-07-23T15:30:51;30.80;93.50
1686;DHT22;840;47.980;7.830;2022-07-23T15:33:18;31.20;93.00
1686;DHT22;840;47.980;7.830;2022-07-23T15:35:45;31.60;93.00
1686;DHT22;840;47.980;7.830;2022-07-23T15:38:14;32.10;92.00
1686;DHT22;840;47.980;7.830;2022-07-23T15:40:40;32.60;91.60
1686;DHT22;840;47.980;7.830;2022-07-23T15:43:07;33.10;90.00
1686;DHT22;840;47.980;7.830;2022-07-23T15:45:34;33.40;88.20
1686;DHT22;840;47.980;7.830;2022-07-23T15:48:01;33.40;83.70
1686;DHT22;840;47.980;7.830;2022-07-23T15:50:28;33.30;83.50
1686;DHT22;840;47.980;7.830;2022-07-23T15:52:55;33.20;82.20
1686;DHT22;840;47.980;7.830;2022-07-23T15:55:24;33.10;80.40
1686;DHT22;840;47.980;7.830;2022-07-23T15:57:51;33.40;81.80
1686;DHT22;840;47.980;7.830;2022-07-23T16:00:18;33.40;78.50
1686;DHT22;840;47.980;7.830;2022-07-23T16:02:45;33.60;79.80
1686;DHT22;840;47.980;7.830;2022-07-23T16:05:12;33.80;79.90
1686;DHT22;840;47.980;7.830;2022-07-23T16:07:39;33.70;76.00
1686;DHT22;840;47.980;7.830;2022-07-23T16:10:06;33.80;75.80
1686;DHT22;840;47.980;7.830;2022-07-23T16:12:37;34.00;77.30
1686;DHT22;840;47.980;7.830;2022-07-23T16:15:04;34.20;76.30
1686;DHT22;840;47.980;7.830;2022-07-23T16:17:31;34.20;75.30
1686;DHT22;840;47.980;7.830;2022-07-23T16:19:58;33.90;73.40
1686;DHT22;840;47.980;7.830;2022-07-23T16:22:25;33.90;72.60
1686;DHT22;840;47.980;7.830;2022-07-23T16:24:52;33.90;73.00
1686;DHT22;840;47.980;7.830;2022-07-23T16:27:18;34.10;73.30